createdAt,value
2023-05-24T00:03:31.149Z,10.20
2023-05-24T00:08:37.253Z,10.80
2023-05-24T00:13:42.929Z,15.50
2023-05-24T00:18:52.357Z,11.20
2023-05-24T00:23:55.857Z,11.80
2023-05-24T00:29:00.054Z,12.30
2023-05-24T00:34:03.643Z,9.80
2023-05-24T00:39:07.494Z,13.70
2023-05-24T00:44:12.244Z,11.00
2023-05-24T00:49:15.831Z,10.80
2023-05-24T00:54:19.279Z,10.30
2023-05-24T00:59:24.182Z,12.60
2023-05-24T01:04:28.452Z,9.50
2023-05-24T01:10:03.543Z,10.60
2023-05-24T01:16:02.556Z,8.60
2023-05-24T01:21:38.941Z,9.70
2023-05-24T01:27:02.368Z,11.00
2023-05-24T01:32:07.147Z,10.80
2023-05-24T01:37:12.687Z,10.80
2023-05-24T01:42:18.675Z,8.70
2023-05-24T01:47:27.839Z,9.60
2023-05-24T01:52:34.933Z,11.80
2023-05-24T01:57:41.540Z,11.00
2023-05-24T02:02:46.033Z,10.20
2023-05-24T02:07:50.210Z,9.70
2023-05-24T02:12:53.432Z,10.00
2023-05-24T02:17:57.230Z,10.40
2023-05-24T02:23:00.766Z,9.50
2023-05-24T02:28:04.267Z,11.90
2023-05-24T02:33:07.665Z,12.00
2023-05-24T02:38:11.040Z,12.10
2023-05-24T02:43:14.763Z,11.70
2023-05-24T02:48:18.285Z,12.20
2023-05-24T02:53:21.756Z,10.50
2023-05-24T02:58:25.656Z,8.80
2023-05-24T03:03:31.401Z,10.60
2023-05-24T03:08:37.583Z,8.20
2023-05-24T03:13:44.737Z,8.20
2023-05-24T03:18:57.538Z,10.20
2023-05-24T03:24:01.393Z,9.20
2023-05-24T03:29:04.920Z,11.80
2023-05-24T03:34:12.526Z,9.50
2023-05-24T03:39:19.053Z,8.80
2023-05-24T03:44:32.292Z,8.50
2023-05-24T03:49:35.941Z,9.40
2023-05-24T03:54:39.476Z,9.80
2023-05-24T03:59:42.712Z,9.20
2023-05-24T04:04:46.430Z,8.70
2023-05-24T04:09:50.118Z,9.50
2023-05-24T04:14:53.709Z,8.60
2023-05-24T04:19:57.091Z,9.70
2023-05-24T04:25:00.544Z,10.80
2023-05-24T04:30:04.216Z,10.90
2023-05-24T04:35:08.351Z,12.00
2023-05-24T04:40:12.503Z,13.00
2023-05-24T04:45:16.783Z,11.10
2023-05-24T04:50:20.040Z,8.50
2023-05-24T04:55:23.243Z,11.90
2023-05-24T05:00:26.519Z,11.30
2023-05-24T05:05:29.820Z,10.30
2023-05-24T05:10:33.054Z,12.10
2023-05-24T05:15:36.306Z,10.10
2023-05-24T05:20:39.926Z,10.30
2023-05-24T05:25:43.564Z,9.90
2023-05-24T05:30:46.746Z,11.10
2023-05-24T05:35:51.788Z,10.30
2023-05-24T05:40:56.713Z,7.90
2023-05-24T05:46:01.147Z,7.70
2023-05-24T05:51:04.513Z,9.10
2023-05-24T05:56:08.030Z,10.90
2023-05-24T06:01:11.363Z,11.80
2023-05-24T06:06:14.671Z,11.40
2023-05-24T06:11:18.054Z,11.10
2023-05-24T06:16:21.942Z,8.40
2023-05-24T06:21:25.191Z,10.60
2023-05-24T06:26:28.528Z,8.60
2023-05-24T06:31:31.827Z,12.40
2023-05-24T06:36:43.241Z,10.30
2023-05-24T06:41:47.443Z,8.80
2023-05-24T06:46:51.024Z,11.00
2023-05-24T06:51:54.228Z,12.30
2023-05-24T06:56:57.934Z,12.20
2023-05-24T07:02:03.904Z,10.50
2023-05-24T07:07:09.322Z,9.30
2023-05-24T07:12:13.097Z,12.90
2023-05-24T07:17:16.683Z,11.80
2023-05-24T07:22:20.391Z,9.80
2023-05-24T07:27:23.840Z,11.10
2023-05-24T07:32:27.673Z,8.90
2023-05-24T07:37:31.333Z,10.00
2023-05-24T07:42:34.627Z,10.90
2023-05-24T07:47:38.991Z,8.30
2023-05-24T07:52:42.217Z,10.80
2023-05-24T07:57:45.462Z,11.80
2023-05-24T08:02:49.326Z,10.40
2023-05-24T08:07:56.192Z,10.80
2023-05-24T08:12:59.480Z,7.90
2023-05-24T08:18:03.639Z,11.40
2023-05-24T08:23:06.997Z,9.90
2023-05-24T08:28:11.255Z,9.20
2023-05-24T08:33:15.110Z,9.80
2023-05-24T08:38:18.901Z,11.60
2023-05-24T08:43:23.770Z,14.40
2023-05-24T08:48:28.683Z,11.90
2023-05-24T08:53:33.791Z,9.60
2023-05-24T08:58:39.939Z,8.80
2023-05-24T09:03:46.438Z,11.00
2023-05-24T09:08:52.720Z,10.10
2023-05-24T09:13:57.415Z,15.00
2023-05-24T09:19:01.472Z,11.80
2023-05-24T09:24:08.590Z,9.60
2023-05-24T09:29:11.937Z,13.10
2023-05-24T09:34:16.921Z,11.80
2023-05-24T09:39:23.378Z,14.90
2023-05-24T09:44:28.364Z,11.80
2023-05-24T09:49:32.940Z,15.40
2023-05-24T09:54:36.248Z,10.90
2023-05-24T09:59:41.001Z,10.70
2023-05-24T10:04:44.555Z,13.10
2023-05-24T10:09:48.841Z,17.80
2023-05-24T10:14:52.540Z,11.10
2023-05-24T10:19:55.923Z,11.40
2023-05-24T10:25:00.165Z,9.70
2023-05-24T10:30:23.621Z,15.50
2023-05-24T10:35:27.788Z,12.70
2023-05-24T10:40:32.162Z,13.50
2023-05-24T10:45:40.953Z,11.60
2023-05-24T10:50:44.945Z,10.20
2023-05-24T10:55:53.469Z,13.10
2023-05-24T11:00:56.748Z,9.30
2023-05-24T11:06:00.324Z,10.60
2023-05-24T11:11:22.394Z,11.20
2023-05-24T11:16:40.391Z,12.30
2023-05-24T11:21:46.368Z,9.40
2023-05-24T11:26:50.481Z,16.50
2023-05-24T11:32:04.245Z,15.50
2023-05-24T11:37:07.800Z,11.20
2023-05-24T11:42:11.282Z,12.20
2023-05-24T11:47:14.513Z,11.80
2023-05-24T11:52:18.265Z,10.20
2023-05-24T11:57:30.764Z,11.70
2023-05-24T12:02:34.382Z,9.10
2023-05-24T12:07:38.063Z,9.80
2023-05-24T12:12:46.287Z,9.40
2023-05-24T12:17:53.649Z,12.50
2023-05-24T12:22:57.382Z,10.30
2023-05-24T12:28:00.726Z,14.10
2023-05-24T12:33:04.263Z,10.20
2023-05-24T12:38:09.456Z,9.00
2023-05-24T12:43:14.999Z,13.60
2023-05-24T12:48:18.551Z,12.50
2023-05-24T12:53:24.800Z,14.70
2023-05-24T12:58:28.071Z,16.50
2023-05-24T13:03:31.256Z,16.60
2023-05-24T13:08:34.493Z,20.40
2023-05-24T13:13:38.477Z,14.70
2023-05-24T13:18:41.837Z,13.00
2023-05-24T13:23:45.564Z,13.40
2023-05-24T13:29:15.075Z,16.90
2023-05-24T13:34:12.318Z,16.30
2023-05-24T13:39:16.737Z,16.80
2023-05-24T13:44:20.530Z,14.00
2023-05-24T13:49:23.928Z,18.50
2023-05-24T13:54:28.010Z,20.70
2023-05-24T13:59:31.503Z,15.90
2023-05-24T14:04:34.900Z,15.90
2023-05-24T14:09:38.237Z,14.80
2023-05-24T14:19:47.950Z,15.50
2023-05-24T14:24:51.319Z,14.70
2023-05-24T14:29:54.464Z,12.90
2023-05-24T14:34:57.671Z,14.90
2023-05-24T14:40:01.381Z,12.10
2023-05-24T14:45:05.171Z,16.00
2023-05-24T14:50:08.830Z,17.80
2023-05-24T14:55:13.028Z,21.70
2023-05-24T15:00:18.498Z,18.00
2023-05-24T15:05:23.742Z,23.00
2023-05-24T15:10:27.253Z,19.40
2023-05-24T15:15:30.855Z,21.70
2023-05-24T15:20:35.668Z,19.40
2023-05-24T15:25:39.433Z,14.30
2023-05-24T15:30:47.318Z,13.10
2023-05-24T15:35:51.397Z,18.80
2023-05-24T15:40:54.743Z,19.30
2023-05-24T15:45:57.939Z,18.50
2023-05-24T15:51:42.810Z,17.70
2023-05-24T15:56:25.034Z,17.30
2023-05-24T16:01:28.477Z,18.70
2023-05-24T16:06:32.168Z,18.50
2023-05-24T16:11:35.902Z,17.80
2023-05-24T16:16:39.434Z,15.40
2023-05-24T16:21:42.883Z,18.10
2023-05-24T16:26:46.551Z,17.90
2023-05-24T16:31:49.897Z,15.50
2023-05-24T16:36:53.375Z,14.20
2023-05-24T16:41:57.229Z,16.90
2023-05-24T16:47:02.583Z,18.50
2023-05-24T16:52:06.079Z,15.70
2023-05-24T16:57:09.586Z,17.60
2023-05-24T17:02:13.125Z,15.80
2023-05-24T17:07:16.600Z,14.70
2023-05-24T17:12:22.032Z,12.90
2023-05-24T17:17:26.469Z,14.40
2023-05-24T17:22:30.037Z,15.30
2023-05-24T17:27:34.158Z,15.40
2023-05-24T17:32:37.782Z,14.90
2023-05-24T17:37:41.912Z,14.10
2023-05-24T17:42:45.331Z,14.00
2023-05-24T17:47:49.915Z,14.20
2023-05-24T17:52:53.640Z,15.70
2023-05-24T17:57:58.052Z,14.30
2023-05-24T18:03:02.404Z,16.90
2023-05-24T18:08:05.795Z,14.50
2023-05-24T18:13:09.719Z,17.40
2023-05-24T18:18:13.719Z,14.60
2023-05-24T18:23:18.045Z,15.30
2023-05-24T18:28:21.633Z,14.70
2023-05-24T18:33:25.354Z,17.20
2023-05-24T18:38:29.668Z,17.30
2023-05-24T18:43:33.382Z,17.30
2023-05-24T18:48:36.875Z,16.10
2023-05-24T18:53:55.229Z,14.10
2023-05-24T18:59:01.471Z,16.90
2023-05-24T19:04:06.187Z,15.00
2023-05-24T19:09:10.969Z,15.70
2023-05-24T19:14:14.347Z,14.20
2023-05-24T19:19:17.960Z,17.10
2023-05-24T19:24:24.408Z,16.40
2023-05-24T19:29:28.656Z,15.30
2023-05-24T19:34:35.426Z,14.60
2023-05-24T19:39:39.125Z,15.70
2023-05-24T19:44:42.441Z,17.70
2023-05-24T19:49:45.632Z,16.70
2023-05-24T19:54:50.428Z,19.20
2023-05-24T19:59:55.150Z,19.20
2023-05-24T20:04:58.962Z,16.70
2023-05-24T20:10:05.293Z,16.60
2023-05-24T20:15:10.121Z,16.80
2023-05-24T20:20:14.501Z,19.90
2023-05-24T20:25:20.499Z,21.10
2023-05-24T20:30:25.092Z,22.30
2023-05-24T20:35:28.761Z,20.10
2023-05-24T20:40:33.025Z,20.60
2023-05-24T20:45:36.585Z,22.50
2023-05-24T20:50:39.903Z,21.50
2023-05-24T20:55:43.532Z,21.20
2023-05-24T21:00:47.817Z,20.20
2023-05-24T21:05:51.860Z,18.20
2023-05-24T21:10:55.873Z,22.60
2023-05-24T21:15:59.170Z,20.10
2023-05-24T21:21:02.480Z,21.50
2023-05-24T21:26:05.907Z,21.20
2023-05-24T21:31:09.268Z,19.90
2023-05-24T21:36:13.044Z,21.10
2023-05-24T21:41:16.323Z,20.70
2023-05-24T21:46:19.613Z,21.90
2023-05-24T21:51:25.747Z,23.20
2023-05-24T21:56:28.941Z,22.30
2023-05-24T22:01:32.263Z,24.70
2023-05-24T22:06:36.557Z,24.20
2023-05-24T22:11:41.416Z,23.20
2023-05-24T22:16:45.246Z,22.00
2023-05-24T22:21:50.426Z,20.50
2023-05-24T22:27:20.535Z,22.80
2023-05-24T22:32:22.670Z,26.50
2023-05-24T22:42:26.421Z,23.10
2023-05-24T22:47:32.633Z,29.50
2023-05-24T22:52:34.735Z,27.40
2023-05-24T22:57:36.446Z,26.10
2023-05-24T23:02:38.412Z,26.60
2023-05-24T23:07:40.433Z,30.90
2023-05-24T23:12:42.318Z,25.70
2023-05-24T23:17:44.321Z,27.40
2023-05-24T23:22:46.277Z,25.70
2023-05-24T23:27:48.080Z,23.80
2023-05-24T23:32:49.967Z,26.10
2023-05-24T23:37:53.208Z,25.20
2023-05-24T23:42:55.478Z,27.00
2023-05-24T23:52:59.362Z,30.40
2023-05-24T23:58:01.193Z,29.10
